sensor_id;sensor_type;location;lat;lon;timestamp;P1;durP1;ratioP1;P2;durP2;ratioP2
37309;SDS011;23195;47.744;7.358;2022-12-16T06:53:53;49.33;;;21.53;;
37309;SDS011;23195;47.744;7.358;2022-12-16T06:56:37;50.67;;;23.80;;
37309;SDS011;23195;47.744;7.358;2022-12-16T06:59:21;47.80;;;22.13;;
37309;SDS011;23195;47.744;7.358;2022-12-16T07:02:09;47.90;;;22.87;;
37309;SDS011;23195;47.744;7.358;2022-12-16T07:04:54;45.37;;;21.00;;
37309;SDS011;23195;47.744;7.358;2022-12-16T07:07:38;43.90;;;21.53;;
37309;SDS011;23195;47.744;7.358;2022-12-16T07:10:22;50.80;;;22.20;;
37309;SDS011;23195;47.744;7.358;2022-12-16T07:13:06;43.83;;;20.80;;
37309;SDS011;23195;47.744;7.358;2022-12-16T07:15:50;42.53;;;20.27;;
37309;SDS011;23195;47.744;7.358;2022-12-16T07:18:34;46.63;;;21.83;;
37309;SDS011;23195;47.744;7.358;2022-12-16T07:21:18;44.60;;;21.77;;
37309;SDS011;23195;47.744;7.358;2022-12-16T07:24:02;47.70;;;21.63;;
37309;SDS011;23195;47.744;7.358;2022-12-16T07:26:47;43.13;;;20.30;;
37309;SDS011;23195;47.744;7.358;2022-12-16T07:29:31;37.67;;;17.93;;
37309;SDS011;23195;47.744;7.358;2022-12-16T07:32:15;42.83;;;20.23;;
37309;SDS011;23195;47.744;7.358;2022-12-16T07:34:59;40.93;;;20.13;;
37309;SDS011;23195;47.744;7.358;2022-12-16T07:37:43;37.87;;;16.87;;
37309;SDS011;23195;47.744;7.358;2022-12-16T07:40:27;34.27;;;16.70;;
37309;SDS011;23195;47.744;7.358;2022-12-16T07:43:14;42.93;;;20.63;;
37309;SDS011;23195;47.744;7.358;2022-12-16T07:46:03;38.57;;;16.93;;
37309;SDS011;23195;47.744;7.358;2022-12-16T07:48:47;38.70;;;18.90;;
37309;SDS011;23195;47.744;7.358;2022-12-16T07:51:31;37.43;;;15.93;;
37309;SDS011;23195;47.744;7.358;2022-12-16T07:54:21;38.63;;;15.17;;
37309;SDS011;23195;47.744;7.358;2022-12-16T07:57:10;35.50;;;15.70;;
37309;SDS011;23195;47.744;7.358;2022-12-16T07:59:57;34.77;;;14.90;;
37309;SDS011;23195;47.744;7.358;2022-12-16T08:03:01;36.60;;;14.70;;
37309;SDS011;23195;47.744;7.358;2022-12-16T08:05:48;29.83;;;14.83;;
37309;SDS011;23195;47.744;7.358;2022-12-16T08:08:32;29.40;;;13.83;;
37309;SDS011;23195;47.744;7.358;2022-12-16T08:11:33;29.83;;;13.20;;
37309;SDS011;23195;47.744;7.358;2022-12-16T08:14:17;27.23;;;13.73;;
37309;SDS011;23195;47.744;7.358;2022-12-16T08:17:01;23.73;;;12.57;;
37309;SDS011;23195;47.744;7.358;2022-12-16T08:19:46;27.80;;;12.97;;
37309;SDS011;23195;47.744;7.358;2022-12-16T08:22:30;28.47;;;13.53;;
37309;SDS011;23195;47.744;7.358;2022-12-16T08:25:14;28.23;;;13.97;;
37309;SDS011;23195;47.744;7.358;2022-12-16T08:28:01;28.50;;;14.00;;
37309;SDS011;23195;47.744;7.358;2022-12-16T08:30:49;28.77;;;13.83;;
37309;SDS011;23195;47.744;7.358;2022-12-16T08:33:34;24.73;;;13.87;;
37309;SDS011;23195;47.744;7.358;2022-12-16T08:36:18;29.87;;;14.10;;
37309;SDS011;23195;47.744;7.358;2022-12-16T08:39:05;26.40;;;13.30;;
37309;SDS011;23195;47.744;7.358;2022-12-16T08:41:50;25.57;;;12.57;;
37309;SDS011;23195;47.744;7.358;2022-12-16T08:44:34;26.73;;;13.17;;
37309;SDS011;23195;47.744;7.358;2022-12-16T08:47:18;24.47;;;12.63;;
37309;SDS011;23195;47.744;7.358;2022-12-16T08:50:03;25.30;;;12.50;;
37309;SDS011;23195;47.744;7.358;2022-12-16T08:52:50;26.00;;;13.07;;
37309;SDS011;23195;47.744;7.358;2022-12-16T08:55:42;26.50;;;12.57;;
37309;SDS011;23195;47.744;7.358;2022-12-16T08:58:47;25.40;;;12.80;;
37309;SDS011;23195;47.744;7.358;2022-12-16T09:01:31;25.43;;;13.00;;
37309;SDS011;23195;47.744;7.358;2022-12-16T09:04:15;22.30;;;12.83;;
37309;SDS011;23195;47.744;7.358;2022-12-16T09:07:02;22.93;;;13.23;;
37309;SDS011;23195;47.744;7.358;2022-12-16T09:09:52;33.23;;;17.30;;
37309;SDS011;23195;47.744;7.358;2022-12-16T09:12:42;29.17;;;13.33;;
37309;SDS011;23195;47.744;7.358;2022-12-16T09:15:29;28.03;;;13.57;;
37309;SDS011;23195;47.744;7.358;2022-12-16T09:18:16;27.13;;;12.77;;
37309;SDS011;23195;47.744;7.358;2022-12-16T09:21:00;22.80;;;11.87;;
37309;SDS011;23195;47.744;7.358;2022-12-16T09:27:04;23.00;;;11.17;;
37309;SDS011;23195;47.744;7.358;2022-12-16T09:29:50;26.17;;;11.37;;
37309;SDS011;23195;47.744;7.358;2022-12-16T09:32:43;26.47;;;12.77;;
37309;SDS011;23195;47.744;7.358;2022-12-16T09:35:27;21.73;;;10.53;;
37309;SDS011;23195;47.744;7.358;2022-12-16T09:38:12;22.33;;;11.23;;
37309;SDS011;23195;47.744;7.358;2022-12-16T09:40:57;19.43;;;10.20;;
37309;SDS011;23195;47.744;7.358;2022-12-16T09:43:59;21.03;;;10.17;;
37309;SDS011;23195;47.744;7.358;2022-12-16T09:49:46;20.93;;;10.10;;
37309;SDS011;23195;47.744;7.358;2022-12-16T09:52:36;19.53;;;9.87;;
37309;SDS011;23195;47.744;7.358;2022-12-16T09:55:38;23.10;;;9.43;;
37309;SDS011;23195;47.744;7.358;2022-12-16T09:58:25;17.43;;;9.07;;
37309;SDS011;23195;47.744;7.358;2022-12-16T10:01:13;18.57;;;10.00;;
37309;SDS011;23195;47.744;7.358;2022-12-16T10:04:00;23.13;;;9.80;;
37309;SDS011;23195;47.744;7.358;2022-12-16T10:06:48;20.53;;;10.23;;
37309;SDS011;23195;47.744;7.358;2022-12-16T10:21:17;19.67;;;10.00;;
37309;SDS011;23195;47.744;7.358;2022-12-16T10:27:28;20.03;;;10.00;;
37309;SDS011;23195;47.744;7.358;2022-12-16T10:30:27;16.80;;;9.03;;
37309;SDS011;23195;47.744;7.358;2022-12-16T10:33:13;19.37;;;9.37;;
37309;SDS011;23195;47.744;7.358;2022-12-16T10:35:58;19.10;;;9.30;;
37309;SDS011;23195;47.744;7.358;2022-12-16T10:38:44;23.13;;;9.63;;
37309;SDS011;23195;47.744;7.358;2022-12-16T10:41:42;19.83;;;9.47;;
37309;SDS011;23195;47.744;7.358;2022-12-16T10:47:20;21.30;;;10.73;;
37309;SDS011;23195;47.744;7.358;2022-12-16T10:50:05;19.47;;;9.90;;
37309;SDS011;23195;47.744;7.358;2022-12-16T10:52:59;21.33;;;10.80;;
37309;SDS011;23195;47.744;7.358;2022-12-16T10:59:03;20.17;;;10.57;;
37309;SDS011;23195;47.744;7.358;2022-12-16T11:02:34;18.50;;;9.97;;
37309;SDS011;23195;47.744;7.358;2022-12-16T11:05:20;19.93;;;9.77;;
37309;SDS011;23195;47.744;7.358;2022-12-16T11:08:29;23.40;;;11.20;;
37309;SDS011;23195;47.744;7.358;2022-12-16T11:11:25;19.77;;;9.77;;
37309;SDS011;23195;47.744;7.358;2022-12-16T11:14:30;18.30;;;10.30;;
37309;SDS011;23195;47.744;7.358;2022-12-16T11:17:22;19.73;;;9.97;;
37309;SDS011;23195;47.744;7.358;2022-12-16T11:29:07;20.60;;;10.73;;
37309;SDS011;23195;47.744;7.358;2022-12-16T11:32:20;19.17;;;10.03;;
37309;SDS011;23195;47.744;7.358;2022-12-16T11:38:38;22.43;;;10.37;;
37309;SDS011;23195;47.744;7.358;2022-12-16T11:44:38;20.30;;;10.67;;
37309;SDS011;23195;47.744;7.358;2022-12-16T11:50:28;22.63;;;10.83;;
37309;SDS011;23195;47.744;7.358;2022-12-16T11:56:24;21.30;;;11.10;;
37309;SDS011;23195;47.744;7.358;2022-12-16T12:02:14;18.70;;;9.57;;
37309;SDS011;23195;47.744;7.358;2022-12-16T12:05:14;17.43;;;8.83;;
37309;SDS011;23195;47.744;7.358;2022-12-16T12:08:05;19.90;;;9.33;;
37309;SDS011;23195;47.744;7.358;2022-12-16T12:23:29;18.07;;;8.67;;
37309;SDS011;23195;47.744;7.358;2022-12-16T12:26:34;22.77;;;10.00;;
37309;SDS011;23195;47.744;7.358;2022-12-16T12:44:35;19.17;;;9.90;;
37309;SDS011;23195;47.744;7.358;2022-12-16T12:48:12;19.43;;;10.33;;
37309;SDS011;23195;47.744;7.358;2022-12-16T12:51:25;20.37;;;9.90;;
37309;SDS011;23195;47.744;7.358;2022-12-16T12:57:45;18.77;;;10.63;;
37309;SDS011;23195;47.744;7.358;2022-12-16T13:00:33;42.13;;;18.27;;
37309;SDS011;23195;47.744;7.358;2022-12-16T13:03:37;23.67;;;11.07;;
37309;SDS011;23195;47.744;7.358;2022-12-16T13:06:29;24.43;;;10.73;;
37309;SDS011;23195;47.744;7.358;2022-12-16T13:09:33;19.17;;;10.27;;
37309;SDS011;23195;47.744;7.358;2022-12-16T13:12:23;22.07;;;11.33;;
37309;SDS011;23195;47.744;7.358;2022-12-16T13:18:25;18.63;;;10.43;;
37309;SDS011;23195;47.744;7.358;2022-12-16T13:27:43;23.37;;;11.83;;
37309;SDS011;23195;47.744;7.358;2022-12-16T13:30:30;21.63;;;11.33;;
37309;SDS011;23195;47.744;7.358;2022-12-16T13:36:03;23.77;;;10.70;;
37309;SDS011;23195;47.744;7.358;2022-12-16T13:38:49;23.07;;;12.00;;
37309;SDS011;23195;47.744;7.358;2022-12-16T13:47:30;22.07;;;11.63;;
37309;SDS011;23195;47.744;7.358;2022-12-16T13:50:41;20.10;;;11.00;;
37309;SDS011;23195;47.744;7.358;2022-12-16T13:53:38;22.60;;;11.27;;
37309;SDS011;23195;47.744;7.358;2022-12-16T13:56:47;24.57;;;12.53;;
37309;SDS011;23195;47.744;7.358;2022-12-16T13:59:34;19.90;;;9.70;;
37309;SDS011;23195;47.744;7.358;2022-12-16T14:02:29;22.53;;;11.37;;
37309;SDS011;23195;47.744;7.358;2022-12-16T14:05:21;23.50;;;11.40;;
37309;SDS011;23195;47.744;7.358;2022-12-16T14:08:30;24.50;;;11.77;;
37309;SDS011;23195;47.744;7.358;2022-12-16T14:11:20;21.83;;;11.27;;
37309;SDS011;23195;47.744;7.358;2022-12-16T14:14:26;21.43;;;10.93;;
37309;SDS011;23195;47.744;7.358;2022-12-16T14:17:21;24.47;;;12.43;;
37309;SDS011;23195;47.744;7.358;2022-12-16T14:20:20;23.93;;;11.53;;
37309;SDS011;23195;47.744;7.358;2022-12-16T14:26:16;26.07;;;12.73;;
37309;SDS011;23195;47.744;7.358;2022-12-16T14:29:01;23.50;;;12.83;;
37309;SDS011;23195;47.744;7.358;2022-12-16T14:31:47;27.70;;;12.70;;
37309;SDS011;23195;47.744;7.358;2022-12-16T14:34:33;24.43;;;13.13;;
37309;SDS011;23195;47.744;7.358;2022-12-16T14:40:17;29.10;;;13.77;;
37309;SDS011;23195;47.744;7.358;2022-12-16T14:43:09;30.43;;;14.93;;
37309;SDS011;23195;47.744;7.358;2022-12-16T14:45:58;26.97;;;13.00;;
37309;SDS011;23195;47.744;7.358;2022-12-16T14:48:44;23.83;;;13.17;;
37309;SDS011;23195;47.744;7.358;2022-12-16T14:54:17;24.93;;;12.93;;
37309;SDS011;23195;47.744;7.358;2022-12-16T14:57:09;27.73;;;12.63;;
37309;SDS011;23195;47.744;7.358;2022-12-16T15:05:46;30.10;;;14.73;;
37309;SDS011;23195;47.744;7.358;2022-12-16T15:11:39;26.13;;;13.30;;
37309;SDS011;23195;47.744;7.358;2022-12-16T15:14:26;30.53;;;14.00;;
37309;SDS011;23195;47.744;7.358;2022-12-16T15:17:26;29.03;;;14.17;;
37309;SDS011;23195;47.744;7.358;2022-12-16T15:20:27;29.17;;;13.50;;
37309;SDS011;23195;47.744;7.358;2022-12-16T15:26:08;28.17;;;13.60;;
37309;SDS011;23195;47.744;7.358;2022-12-16T15:29:00;32.00;;;14.50;;
37309;SDS011;23195;47.744;7.358;2022-12-16T15:31:45;29.57;;;14.57;;
37309;SDS011;23195;47.744;7.358;2022-12-16T15:34:46;26.87;;;14.13;;
37309;SDS011;23195;47.744;7.358;2022-12-16T15:37:35;30.57;;;14.20;;
37309;SDS011;23195;47.744;7.358;2022-12-16T15:40:31;27.10;;;13.63;;
37309;SDS011;23195;47.744;7.358;2022-12-16T15:43:30;28.50;;;13.37;;
37309;SDS011;23195;47.744;7.358;2022-12-16T15:46:25;30.83;;;15.47;;
37309;SDS011;23195;47.744;7.358;2022-12-16T15:49:26;26.17;;;14.03;;
37309;SDS011;23195;47.744;7.358;2022-12-16T15:52:21;31.83;;;15.10;;
37309;SDS011;23195;47.744;7.358;2022-12-16T15:58:37;30.20;;;14.27;;
37309;SDS011;23195;47.744;7.358;2022-12-16T16:01:22;27.83;;;14.37;;
37309;SDS011;23195;47.744;7.358;2022-12-16T16:04:16;30.90;;;14.97;;
37309;SDS011;23195;47.744;7.358;2022-12-16T16:07:17;30.97;;;14.87;;
37309;SDS011;23195;47.744;7.358;2022-12-16T16:10:24;31.67;;;16.00;;
37309;SDS011;23195;47.744;7.358;2022-12-16T16:13:08;34.03;;;15.60;;
37309;SDS011;23195;47.744;7.358;2022-12-16T16:15:53;31.60;;;15.37;;
37309;SDS011;23195;47.744;7.358;2022-12-16T16:18:39;36.73;;;16.47;;
37309;SDS011;23195;47.744;7.358;2022-12-16T16:21:27;35.03;;;16.33;;
37309;SDS011;23195;47.744;7.358;2022-12-16T16:24:17;33.10;;;16.03;;
37309;SDS011;23195;47.744;7.358;2022-12-16T16:27:02;36.50;;;15.73;;
37309;SDS011;23195;47.744;7.358;2022-12-16T16:29:49;32.73;;;15.93;;
37309;SDS011;23195;47.744;7.358;2022-12-16T16:32:33;32.77;;;15.03;;
37309;SDS011;23195;47.744;7.358;2022-12-16T16:35:17;30.77;;;14.63;;
37309;SDS011;23195;47.744;7.358;2022-12-16T16:38:04;30.53;;;14.90;;
37309;SDS011;23195;47.744;7.358;2022-12-16T16:40:48;31.17;;;14.40;;
37309;SDS011;23195;47.744;7.358;2022-12-16T16:43:32;35.90;;;15.47;;
37309;SDS011;23195;47.744;7.358;2022-12-16T16:49:04;32.07;;;14.33;;
37309;SDS011;23195;47.744;7.358;2022-12-16T16:51:54;30.93;;;15.10;;
37309;SDS011;23195;47.744;7.358;2022-12-16T16:54:38;39.13;;;17.17;;
37309;SDS011;23195;47.744;7.358;2022-12-16T16:57:23;33.00;;;15.63;;
37309;SDS011;23195;47.744;7.358;2022-12-16T17:00:15;38.43;;;17.47;;
37309;SDS011;23195;47.744;7.358;2022-12-16T17:02:59;36.83;;;17.70;;
37309;SDS011;23195;47.744;7.358;2022-12-16T17:05:44;36.33;;;18.07;;
37309;SDS011;23195;47.744;7.358;2022-12-16T17:08:28;38.60;;;18.50;;
37309;SDS011;23195;47.744;7.358;2022-12-16T17:11:15;34.70;;;17.30;;
37309;SDS011;23195;47.744;7.358;2022-12-16T17:14:04;37.00;;;17.53;;
37309;SDS011;23195;47.744;7.358;2022-12-16T17:16:49;36.40;;;16.73;;
37309;SDS011;23195;47.744;7.358;2022-12-16T17:19:34;32.17;;;15.60;;
37309;SDS011;23195;47.744;7.358;2022-12-16T17:22:28;36.63;;;16.67;;
37309;SDS011;23195;47.744;7.358;2022-12-16T17:25:20;37.57;;;15.73;;
37309;SDS011;23195;47.744;7.358;2022-12-16T17:28:04;36.47;;;15.30;;
37309;SDS011;23195;47.744;7.358;2022-12-16T17:30:49;33.80;;;15.37;;
37309;SDS011;23195;47.744;7.358;2022-12-16T17:33:36;31.93;;;16.43;;
37309;SDS011;23195;47.744;7.358;2022-12-16T17:36:20;38.23;;;18.13;;
37309;SDS011;23195;47.744;7.358;2022-12-16T17:39:05;36.07;;;17.37;;
37309;SDS011;23195;47.744;7.358;2022-12-16T17:41:49;35.10;;;15.87;;
37309;SDS011;23195;47.744;7.358;2022-12-16T17:44:33;42.87;;;19.77;;
37309;SDS011;23195;47.744;7.358;2022-12-16T17:47:17;40.00;;;18.30;;
37309;SDS011;23195;47.744;7.358;2022-12-16T17:50:02;41.17;;;18.17;;
37309;SDS011;23195;47.744;7.358;2022-12-16T17:52:51;38.63;;;18.07;;
37309;SDS011;23195;47.744;7.358;2022-12-16T17:55:38;43.60;;;17.60;;
37309;SDS011;23195;47.744;7.358;2022-12-16T17:58:33;32.80;;;16.80;;
37309;SDS011;23195;47.744;7.358;2022-12-16T18:01:26;37.87;;;18.40;;
37309;SDS011;23195;47.744;7.358;2022-12-16T18:04:11;37.27;;;16.57;;
37309;SDS011;23195;47.744;7.358;2022-12-16T18:06:55;36.90;;;16.60;;
37309;SDS011;23195;47.744;7.358;2022-12-16T18:09:39;36.70;;;16.60;;
37309;SDS011;23195;47.744;7.358;2022-12-16T18:12:23;37.13;;;16.47;;
37309;SDS011;23195;47.744;7.358;2022-12-16T18:15:07;34.23;;;16.47;;
37309;SDS011;23195;47.744;7.358;2022-12-16T18:17:52;41.70;;;17.97;;
37309;SDS011;23195;47.744;7.358;2022-12-16T18:20:36;37.97;;;17.33;;
37309;SDS011;23195;47.744;7.358;2022-12-16T18:23:20;35.53;;;16.60;;
37309;SDS011;23195;47.744;7.358;2022-12-16T18:26:05;35.07;;;16.20;;
37309;SDS011;23195;47.744;7.358;2022-12-16T18:28:51;38.07;;;18.23;;
37309;SDS011;23195;47.744;7.358;2022-12-16T18:31:54;35.10;;;16.27;;
37309;SDS011;23195;47.744;7.358;2022-12-16T18:34:39;37.73;;;16.70;;
37309;SDS011;23195;47.744;7.358;2022-12-16T18:37:23;39.73;;;18.20;;
37309;SDS011;23195;47.744;7.358;2022-12-16T18:40:08;37.50;;;18.07;;
37309;SDS011;23195;47.744;7.358;2022-12-16T18:42:52;40.90;;;19.63;;
37309;SDS011;23195;47.744;7.358;2022-12-16T18:45:39;41.13;;;19.30;;
37309;SDS011;23195;47.744;7.358;2022-12-16T18:48:23;43.63;;;20.77;;
37309;SDS011;23195;47.744;7.358;2022-12-16T18:51:11;48.50;;;22.83;;
37309;SDS011;23195;47.744;7.358;2022-12-16T18:53:58;49.57;;;22.77;;
37309;SDS011;23195;47.744;7.358;2022-12-16T18:56:45;51.30;;;22.83;;
37309;SDS011;23195;47.744;7.358;2022-12-16T18:59:29;52.33;;;24.80;;
37309;SDS011;23195;47.744;7.358;2022-12-16T19:02:36;55.37;;;26.10;;
37309;SDS011;23195;47.744;7.358;2022-12-16T19:05:21;56.80;;;27.00;;
37309;SDS011;23195;47.744;7.358;2022-12-16T19:08:05;55.43;;;25.77;;
37309;SDS011;23195;47.744;7.358;2022-12-16T19:10:56;51.87;;;24.57;;
37309;SDS011;23195;47.744;7.358;2022-12-16T19:13:43;49.00;;;23.53;;
37309;SDS011;23195;47.744;7.358;2022-12-16T19:16:27;49.57;;;21.43;;
37309;SDS011;23195;47.744;7.358;2022-12-16T19:19:12;42.93;;;20.60;;
37309;SDS011;23195;47.744;7.358;2022-12-16T19:21:56;42.00;;;20.67;;
37309;SDS011;23195;47.744;7.358;2022-12-16T19:24:41;47.87;;;23.40;;
37309;SDS011;23195;47.744;7.358;2022-12-16T19:27:45;42.93;;;21.50;;
37309;SDS011;23195;47.744;7.358;2022-12-16T19:30:29;46.10;;;22.97;;
37309;SDS011;23195;47.744;7.358;2022-12-16T19:33:14;59.13;;;28.00;;
37309;SDS011;23195;47.744;7.358;2022-12-16T19:36:00;57.67;;;29.03;;
37309;SDS011;23195;47.744;7.358;2022-12-16T19:38:45;63.60;;;30.67;;
37309;SDS011;23195;47.744;7.358;2022-12-16T19:41:29;62.17;;;31.23;;
37309;SDS011;23195;47.744;7.358;2022-12-16T19:44:14;62.53;;;29.80;;
37309;SDS011;23195;47.744;7.358;2022-12-16T19:46:58;63.83;;;32.53;;
37309;SDS011;23195;47.744;7.358;2022-12-16T19:49:42;59.00;;;31.57;;
37309;SDS011;23195;47.744;7.358;2022-12-16T19:52:42;54.97;;;29.17;;
37309;SDS011;23195;47.744;7.358;2022-12-16T19:55:27;62.17;;;32.63;;
37309;SDS011;23195;47.744;7.358;2022-12-16T19:58:11;62.73;;;32.17;;
37309;SDS011;23195;47.744;7.358;2022-12-16T20:01:08;69.27;;;31.47;;
37309;SDS011;23195;47.744;7.358;2022-12-16T20:03:52;63.43;;;29.23;;
37309;SDS011;23195;47.744;7.358;2022-12-16T20:06:37;63.00;;;32.07;;
37309;SDS011;23195;47.744;7.358;2022-12-16T20:09:21;66.43;;;31.67;;
37309;SDS011;23195;47.744;7.358;2022-12-16T20:12:05;65.13;;;33.23;;
37309;SDS011;23195;47.744;7.358;2022-12-16T20:14:50;62.67;;;31.30;;
37309;SDS011;23195;47.744;7.358;2022-12-16T20:17:34;62.87;;;31.23;;
37309;SDS011;23195;47.744;7.358;2022-12-16T20:20:18;62.30;;;29.97;;
37309;SDS011;23195;47.744;7.358;2022-12-16T20:23:05;60.13;;;28.80;;
37309;SDS011;23195;47.744;7.358;2022-12-16T20:25:58;62.20;;;30.23;;
37309;SDS011;23195;47.744;7.358;2022-12-16T20:28:44;60.77;;;29.40;;
37309;SDS011;23195;47.744;7.358;2022-12-16T20:31:29;60.97;;;28.50;;
37309;SDS011;23195;47.744;7.358;2022-12-16T20:34:17;61.93;;;29.60;;
37309;SDS011;23195;47.744;7.358;2022-12-16T20:37:11;71.07;;;32.93;;
37309;SDS011;23195;47.744;7.358;2022-12-16T20:40:01;60.47;;;28.83;;
37309;SDS011;23195;47.744;7.358;2022-12-16T20:42:46;60.40;;;29.40;;
37309;SDS011;23195;47.744;7.358;2022-12-16T20:45:30;64.93;;;30.20;;
37309;SDS011;23195;47.744;7.358;2022-12-16T20:48:15;65.53;;;29.30;;
37309;SDS011;23195;47.744;7.358;2022-12-16T20:51:00;62.50;;;28.90;;
37309;SDS011;23195;47.744;7.358;2022-12-16T20:53:35;60.37;;;28.47;;
37309;SDS011;23195;47.744;7.358;2022-12-16T20:56:20;60.90;;;29.27;;
37309;SDS011;23195;47.744;7.358;2022-12-16T20:59:04;64.93;;;31.87;;
37309;SDS011;23195;47.744;7.358;2022-12-16T21:01:50;76.83;;;33.73;;
37309;SDS011;23195;47.744;7.358;2022-12-16T21:04:37;75.57;;;33.67;;
37309;SDS011;23195;47.744;7.358;2022-12-16T21:07:21;79.33;;;34.60;;
37309;SDS011;23195;47.744;7.358;2022-12-16T21:10:05;77.53;;;35.27;;
37309;SDS011;23195;47.744;7.358;2022-12-16T21:12:50;85.07;;;35.97;;
37309;SDS011;23195;47.744;7.358;2022-12-16T21:15:35;86.83;;;38.43;;
37309;SDS011;23195;47.744;7.358;2022-12-16T21:18:23;84.83;;;37.87;;
37309;SDS011;23195;47.744;7.358;2022-12-16T21:21:08;82.17;;;36.87;;
37309;SDS011;23195;47.744;7.358;2022-12-16T21:23:52;70.20;;;32.83;;
37309;SDS011;23195;47.744;7.358;2022-12-16T21:26:39;71.80;;;30.83;;
37309;SDS011;23195;47.744;7.358;2022-12-16T21:29:23;56.77;;;28.10;;
37309;SDS011;23195;47.744;7.358;2022-12-16T21:32:07;63.60;;;29.13;;
37309;SDS011;23195;47.744;7.358;2022-12-16T21:34:51;66.53;;;29.70;;
37309;SDS011;23195;47.744;7.358;2022-12-16T21:37:35;61.83;;;28.93;;
37309;SDS011;23195;47.744;7.358;2022-12-16T21:40:19;64.33;;;30.03;;
37309;SDS011;23195;47.744;7.358;2022-12-16T21:43:20;68.17;;;31.07;;
37309;SDS011;23195;47.744;7.358;2022-12-16T21:46:05;64.90;;;29.83;;
37309;SDS011;23195;47.744;7.358;2022-12-16T21:48:49;70.37;;;30.13;;
37309;SDS011;23195;47.744;7.358;2022-12-16T21:51:48;81.00;;;36.87;;
37309;SDS011;23195;47.744;7.358;2022-12-16T21:54:32;91.03;;;40.40;;
37309;SDS011;23195;47.744;7.358;2022-12-16T21:57:17;87.60;;;40.47;;
37309;SDS011;23195;47.744;7.358;2022-12-16T22:00:01;77.37;;;36.20;;
37309;SDS011;23195;47.744;7.358;2022-12-16T22:02:46;68.60;;;32.60;;
37309;SDS011;23195;47.744;7.358;2022-12-16T22:05:31;69.03;;;32.60;;
37309;SDS011;23195;47.744;7.358;2022-12-16T22:08:15;63.43;;;31.83;;
37309;SDS011;23195;47.744;7.358;2022-12-16T22:11:05;79.13;;;34.50;;
37309;SDS011;23195;47.744;7.358;2022-12-16T22:13:51;70.90;;;32.97;;
37309;SDS011;23195;47.744;7.358;2022-12-16T22:16:35;66.13;;;31.57;;
37309;SDS011;23195;47.744;7.358;2022-12-16T22:19:19;70.53;;;32.60;;
37309;SDS011;23195;47.744;7.358;2022-12-16T22:22:04;65.17;;;32.33;;
37309;SDS011;23195;47.744;7.358;2022-12-16T22:24:48;68.93;;;32.07;;
37309;SDS011;23195;47.744;7.358;2022-12-16T22:27:32;64.10;;;31.70;;
37309;SDS011;23195;47.744;7.358;2022-12-16T22:30:16;71.03;;;30.93;;
37309;SDS011;23195;47.744;7.358;2022-12-16T22:33:00;65.27;;;30.67;;
37309;SDS011;23195;47.744;7.358;2022-12-16T22:36:01;64.63;;;30.63;;
37309;SDS011;23195;47.744;7.358;2022-12-16T22:38:47;67.53;;;31.90;;
37309;SDS011;23195;47.744;7.358;2022-12-16T22:41:31;69.67;;;32.90;;
37309;SDS011;23195;47.744;7.358;2022-12-16T22:44:15;69.10;;;33.23;;
37309;SDS011;23195;47.744;7.358;2022-12-16T22:47:00;81.30;;;35.10;;
37309;SDS011;23195;47.744;7.358;2022-12-16T22:49:44;80.47;;;38.10;;
37309;SDS011;23195;47.744;7.358;2022-12-16T22:52:28;77.67;;;36.57;;
37309;SDS011;23195;47.744;7.358;2022-12-16T22:55:13;76.20;;;36.27;;
37309;SDS011;23195;47.744;7.358;2022-12-16T22:57:57;76.20;;;35.87;;
37309;SDS011;23195;47.744;7.358;2022-12-16T23:00:41;83.57;;;37.57;;
37309;SDS011;23195;47.744;7.358;2022-12-16T23:03:26;85.47;;;37.43;;
37309;SDS011;23195;47.744;7.358;2022-12-16T23:06:10;78.13;;;37.67;;
37309;SDS011;23195;47.744;7.358;2022-12-16T23:08:54;79.33;;;36.83;;
37309;SDS011;23195;47.744;7.358;2022-12-16T23:11:39;86.60;;;38.97;;
37309;SDS011;23195;47.744;7.358;2022-12-16T23:14:27;86.70;;;39.53;;
37309;SDS011;23195;47.744;7.358;2022-12-16T23:17:12;89.27;;;40.97;;
37309;SDS011;23195;47.744;7.358;2022-12-16T23:19:58;91.43;;;42.20;;
37309;SDS011;23195;47.744;7.358;2022-12-16T23:22:42;92.00;;;42.57;;
37309;SDS011;23195;47.744;7.358;2022-12-16T23:25:29;89.67;;;40.13;;
37309;SDS011;23195;47.744;7.358;2022-12-16T23:28:14;92.10;;;41.87;;
37309;SDS011;23195;47.744;7.358;2022-12-16T23:30:58;91.90;;;42.73;;
37309;SDS011;23195;47.744;7.358;2022-12-16T23:33:42;101.23;;;44.13;;
37309;SDS011;23195;47.744;7.358;2022-12-16T23:36:26;98.00;;;42.87;;
37309;SDS011;23195;47.744;7.358;2022-12-16T23:39:13;89.30;;;41.13;;
37309;SDS011;23195;47.744;7.358;2022-12-16T23:41:59;87.07;;;40.70;;
37309;SDS011;23195;47.744;7.358;2022-12-16T23:44:43;89.93;;;42.00;;
37309;SDS011;23195;47.744;7.358;2022-12-16T23:47:28;86.07;;;40.00;;
37309;SDS011;23195;47.744;7.358;2022-12-16T23:50:12;90.83;;;39.17;;
37309;SDS011;23195;47.744;7.358;2022-12-16T23:53:06;87.03;;;39.33;;
37309;SDS011;23195;47.744;7.358;2022-12-16T23:55:59;73.13;;;34.17;;
37309;SDS011;23195;47.744;7.358;2022-12-16T23:58:45;75.57;;;34.50;;
